메인 페이지
METAR-TAF:

METAR-TAF

공항 :

Naval Air Station JRB Fort Worth (Carswell Field)

포트워스, 텍사스, 미국

위도: 32-45-57N, 경도: 097-26-00W, 고도: 198m

현재 날씨관측

예보는 3분 전, 21:52시(UTC)에 발표되었습니다.
남남동14kt, 순간 최대 풍속 19kt
온도 21°C
습도 28%
기압 1022 hPa
시정: 16.1km
고도 11000ft 상공 구름 조금
고도 18000ft 상공 구름 조금

METAR: KNFW 192152Z 16014G19KT 10SM FEW110 FEW180 21/02 A3017 RMK AO2 SLP199 T02110017 VISNO N $

시각: 16:55 (21:55 UTC)

예보

예보 대상 시간: 19일 15시부터 20일 15시까지 (UTC)
여러 방향의 바람 6kt
시정 10km 이상
고도 18000ft 상공 구름 보통
고도 25000ft 상공 구름 많음
전환 중
19일 17시부터 19일 19시까지 (UTC)
15kt
시정 10km 이상
고도 10000ft 상공 구름 보통
고도 18000ft 상공 구름 많음
고도 25000ft 상공 흐림
전환 중
20일 04시부터 20일 06시까지 (UTC)
9kt
시정 10km 이상
고도 4000ft 상공 구름 조금
고도 9000ft 상공 구름 보통
고도 25000ft 상공 구름 많음

TAF: KNFW 1915/2015 VRB06KT 9999 SCT180 BKN250 QNH3020INS BECMG 1917/1919 17015KT 9999 SCT100 BKN180 OVC250 QNH3014INS BECMG 2004/2006 17009KT 9999 FEW040 SCT090 BKN250 QNH3018INS T22/1922Z T10/2012Z FN20046

4,000개 이상의 공항 관측 자료 및 예보 (METAR 및 TAF 보고).

지도상에서 검색 가능한 기상관측소가 노란 점과 빨간 점으로 표시되어 있습니다.

기상관측소 명을 보려면 표시 위로 마우스를 이동하세요.

날씨 관측과 예보를 보려면 클릭하세요.

지도 변경 : 확대하려면 엑스 표시가 있는 녹색 버튼, 축소하려면 빼기 표시가 있는 녹색 버튼, 다음 페이지의 지도를 보려면 녹색 화살표를 클릭하세요.


METAR-TAF: